sensor_id;sensor_type;location;lat;lon;timestamp;temperature;humidity
49124;DHT22;48506;48.202;16.274;2023-07-08T00:00:51;18.50;87.60
49124;DHT22;48506;48.202;16.274;2023-07-08T00:03:18;18.50;87.50
49124;DHT22;48506;48.202;16.274;2023-07-08T00:05:47;18.40;87.70
49124;DHT22;48506;48.202;16.274;2023-07-08T00:08:15;18.40;87.50
49124;DHT22;48506;48.202;16.274;2023-07-08T00:10:41;18.40;88.10
49124;DHT22;48506;48.202;16.274;2023-07-08T00:13:09;18.30;87.60
49124;DHT22;48506;48.202;16.274;2023-07-08T00:15:36;18.30;87.60
49124;DHT22;48506;48.202;16.274;2023-07-08T00:18:11;18.30;88.00
49124;DHT22;48506;48.202;16.274;2023-07-08T00:20:41;18.30;88.20
49124;DHT22;48506;48.202;16.274;2023-07-08T00:23:08;18.20;88.70
49124;DHT22;48506;48.202;16.274;2023-07-08T00:25:34;18.20;88.90
49124;DHT22;48506;48.202;16.274;2023-07-08T00:28:00;18.10;88.20
49124;DHT22;48506;48.202;16.274;2023-07-08T00:30:31;18.00;88.60
49124;DHT22;48506;48.202;16.274;2023-07-08T00:32:58;18.00;88.60
49124;DHT22;48506;48.202;16.274;2023-07-08T00:38:21;18.10;89.20
49124;DHT22;48506;48.202;16.274;2023-07-08T00:43:40;18.00;88.60
49124;DHT22;48506;48.202;16.274;2023-07-08T00:51:37;17.90;89.90
49124;DHT22;48506;48.202;16.274;2023-07-08T00:54:11;17.90;89.80
49124;DHT22;48506;48.202;16.274;2023-07-08T00:56:43;17.80;90.00
49124;DHT22;48506;48.202;16.274;2023-07-08T00:59:26;17.80;90.00
49124;DHT22;48506;48.202;16.274;2023-07-08T01:01:55;17.80;90.10
49124;DHT22;48506;48.202;16.274;2023-07-08T01:04:30;17.80;90.10
49124;DHT22;48506;48.202;16.274;2023-07-08T01:06:59;17.80;90.10
49124;DHT22;48506;48.202;16.274;2023-07-08T01:09:31;17.70;90.00
49124;DHT22;48506;48.202;16.274;2023-07-08T01:12:02;17.70;90.10
49124;DHT22;48506;48.202;16.274;2023-07-08T01:14:31;17.60;90.10
49124;DHT22;48506;48.202;16.274;2023-07-08T01:16:58;17.70;90.40
49124;DHT22;48506;48.202;16.274;2023-07-08T01:19:25;17.60;90.40
49124;DHT22;48506;48.202;16.274;2023-07-08T01:22:05;17.60;90.20
49124;DHT22;48506;48.202;16.274;2023-07-08T01:24:34;17.50;90.40
49124;DHT22;48506;48.202;16.274;2023-07-08T01:27:02;17.50;90.60
49124;DHT22;48506;48.202;16.274;2023-07-08T01:29:30;17.40;90.60
49124;DHT22;48506;48.202;16.274;2023-07-08T01:31:59;17.40;90.90
49124;DHT22;48506;48.202;16.274;2023-07-08T01:34:32;17.30;90.90
49124;DHT22;48506;48.202;16.274;2023-07-08T01:37:00;17.30;90.70
49124;DHT22;48506;48.202;16.274;2023-07-08T01:39:29;17.20;91.00
49124;DHT22;48506;48.202;16.274;2023-07-08T01:41:57;17.20;90.90
49124;DHT22;48506;48.202;16.274;2023-07-08T01:46:52;17.20;91.30
49124;DHT22;48506;48.202;16.274;2023-07-08T01:49:20;17.10;91.50
49124;DHT22;48506;48.202;16.274;2023-07-08T01:51:47;17.10;91.60
49124;DHT22;48506;48.202;16.274;2023-07-08T01:54:14;17.10;91.50
49124;DHT22;48506;48.202;16.274;2023-07-08T01:56:40;17.00;91.80
49124;DHT22;48506;48.202;16.274;2023-07-08T01:59:06;16.90;91.80
49124;DHT22;48506;48.202;16.274;2023-07-08T02:01:32;16.80;92.00
49124;DHT22;48506;48.202;16.274;2023-07-08T02:03:58;16.80;92.40
49124;DHT22;48506;48.202;16.274;2023-07-08T02:06:24;16.70;92.40
49124;DHT22;48506;48.202;16.274;2023-07-08T02:08:50;16.70;92.40
49124;DHT22;48506;48.202;16.274;2023-07-08T02:11:17;16.60;92.70
49124;DHT22;48506;48.202;16.274;2023-07-08T02:13:43;16.70;92.70
49124;DHT22;48506;48.202;16.274;2023-07-08T02:16:09;16.70;92.70
49124;DHT22;48506;48.202;16.274;2023-07-08T02:18:35;16.70;93.00
49124;DHT22;48506;48.202;16.274;2023-07-08T02:21:01;16.60;93.00
49124;DHT22;48506;48.202;16.274;2023-07-08T02:23:27;16.60;93.00
49124;DHT22;48506;48.202;16.274;2023-07-08T02:25:54;16.60;93.00
49124;DHT22;48506;48.202;16.274;2023-07-08T02:28:20;16.60;93.00
49124;DHT22;48506;48.202;16.274;2023-07-08T02:30:47;16.60;93.00
49124;DHT22;48506;48.202;16.274;2023-07-08T02:33:16;16.50;93.00
49124;DHT22;48506;48.202;16.274;2023-07-08T02:35:43;16.50;93.20
49124;DHT22;48506;48.202;16.274;2023-07-08T02:38:09;16.50;93.20
49124;DHT22;48506;48.202;16.274;2023-07-08T02:40:35;16.40;93.20
49124;DHT22;48506;48.202;16.274;2023-07-08T02:43:00;16.40;93.50
49124;DHT22;48506;48.202;16.274;2023-07-08T02:45:26;16.30;93.60
49124;DHT22;48506;48.202;16.274;2023-07-08T02:47:52;16.30;93.60
49124;DHT22;48506;48.202;16.274;2023-07-08T02:50:18;16.30;93.60
49124;DHT22;48506;48.202;16.274;2023-07-08T02:52:44;16.30;93.80
49124;DHT22;48506;48.202;16.274;2023-07-08T02:55:10;16.30;93.70
49124;DHT22;48506;48.202;16.274;2023-07-08T02:57:36;16.30;93.80
49124;DHT22;48506;48.202;16.274;2023-07-08T03:00:03;16.30;93.80
49124;DHT22;48506;48.202;16.274;2023-07-08T03:02:32;16.20;93.90
49124;DHT22;48506;48.202;16.274;2023-07-08T03:04:58;16.30;94.00
49124;DHT22;48506;48.202;16.274;2023-07-08T03:07:26;16.30;94.10
49124;DHT22;48506;48.202;16.274;2023-07-08T03:09:52;16.30;94.10
49124;DHT22;48506;48.202;16.274;2023-07-08T03:12:18;16.30;94.20
49124;DHT22;48506;48.202;16.274;2023-07-08T03:14:44;16.30;94.40
49124;DHT22;48506;48.202;16.274;2023-07-08T03:17:10;16.30;94.40
49124;DHT22;48506;48.202;16.274;2023-07-08T03:19:36;16.30;94.40
49124;DHT22;48506;48.202;16.274;2023-07-08T03:22:02;16.30;94.30
49124;DHT22;48506;48.202;16.274;2023-07-08T03:24:31;16.30;94.40
49124;DHT22;48506;48.202;16.274;2023-07-08T03:26:57;16.20;94.40
49124;DHT22;48506;48.202;16.274;2023-07-08T03:29:23;16.20;94.60
49124;DHT22;48506;48.202;16.274;2023-07-08T03:31:49;16.20;94.60
49124;DHT22;48506;48.202;16.274;2023-07-08T03:34:16;16.20;94.70
49124;DHT22;48506;48.202;16.274;2023-07-08T03:36:48;16.20;94.70
49124;DHT22;48506;48.202;16.274;2023-07-08T03:39:18;16.30;94.80
49124;DHT22;48506;48.202;16.274;2023-07-08T03:41:45;16.20;94.90
49124;DHT22;48506;48.202;16.274;2023-07-08T03:44:12;16.20;94.80
49124;DHT22;48506;48.202;16.274;2023-07-08T03:46:38;16.30;94.70
49124;DHT22;48506;48.202;16.274;2023-07-08T03:49:06;16.30;95.00
49124;DHT22;48506;48.202;16.274;2023-07-08T03:51:34;16.30;95.00
49124;DHT22;48506;48.202;16.274;2023-07-08T03:54:02;16.30;94.80
49124;DHT22;48506;48.202;16.274;2023-07-08T03:56:28;16.30;95.20
49124;DHT22;48506;48.202;16.274;2023-07-08T03:58:55;16.20;95.20
49124;DHT22;48506;48.202;16.274;2023-07-08T04:01:24;16.20;95.40
49124;DHT22;48506;48.202;16.274;2023-07-08T04:03:53;16.20;95.50
49124;DHT22;48506;48.202;16.274;2023-07-08T04:06:19;16.20;95.60
49124;DHT22;48506;48.202;16.274;2023-07-08T04:08:45;16.20;95.50
49124;DHT22;48506;48.202;16.274;2023-07-08T04:11:16;16.30;95.60
49124;DHT22;48506;48.202;16.274;2023-07-08T04:13:43;16.40;95.80
49124;DHT22;48506;48.202;16.274;2023-07-08T04:16:17;16.30;95.80
49124;DHT22;48506;48.202;16.274;2023-07-08T04:18:44;16.40;96.00
49124;DHT22;48506;48.202;16.274;2023-07-08T04:21:10;16.40;95.70
49124;DHT22;48506;48.202;16.274;2023-07-08T04:23:36;16.50;95.90
49124;DHT22;48506;48.202;16.274;2023-07-08T04:26:02;16.50;96.10
49124;DHT22;48506;48.202;16.274;2023-07-08T04:28:28;16.60;96.00
49124;DHT22;48506;48.202;16.274;2023-07-08T04:30:53;16.70;95.90
49124;DHT22;48506;48.202;16.274;2023-07-08T04:33:19;16.70;95.80
49124;DHT22;48506;48.202;16.274;2023-07-08T04:35:47;16.80;96.00
49124;DHT22;48506;48.202;16.274;2023-07-08T04:38:21;16.90;95.80
49124;DHT22;48506;48.202;16.274;2023-07-08T04:40:49;17.00;96.00
49124;DHT22;48506;48.202;16.274;2023-07-08T04:43:17;17.10;96.00
49124;DHT22;48506;48.202;16.274;2023-07-08T04:45:47;17.20;95.90
49124;DHT22;48506;48.202;16.274;2023-07-08T04:48:17;17.20;95.50
49124;DHT22;48506;48.202;16.274;2023-07-08T04:50:46;17.30;95.40
49124;DHT22;48506;48.202;16.274;2023-07-08T04:53:12;17.50;95.10
49124;DHT22;48506;48.202;16.274;2023-07-08T04:55:45;17.60;95.40
49124;DHT22;48506;48.202;16.274;2023-07-08T04:58:12;17.80;95.30
49124;DHT22;48506;48.202;16.274;2023-07-08T05:00:38;18.00;95.00
49124;DHT22;48506;48.202;16.274;2023-07-08T05:03:04;18.10;94.70
49124;DHT22;48506;48.202;16.274;2023-07-08T05:05:30;18.20;94.60
49124;DHT22;48506;48.202;16.274;2023-07-08T05:07:56;18.30;94.40
49124;DHT22;48506;48.202;16.274;2023-07-08T05:10:22;18.40;94.10
49124;DHT22;48506;48.202;16.274;2023-07-08T05:12:48;18.50;93.90
49124;DHT22;48506;48.202;16.274;2023-07-08T05:15:15;18.70;93.90
49124;DHT22;48506;48.202;16.274;2023-07-08T05:17:42;18.80;93.70
49124;DHT22;48506;48.202;16.274;2023-07-08T05:20:10;19.00;93.40
49124;DHT22;48506;48.202;16.274;2023-07-08T05:22:36;19.00;92.30
49124;DHT22;48506;48.202;16.274;2023-07-08T05:25:03;19.00;92.50
49124;DHT22;48506;48.202;16.274;2023-07-08T05:27:31;19.20;92.50
49124;DHT22;48506;48.202;16.274;2023-07-08T05:30:01;19.30;92.60
49124;DHT22;48506;48.202;16.274;2023-07-08T05:32:27;19.50;92.20
49124;DHT22;48506;48.202;16.274;2023-07-08T05:34:53;19.70;92.20
49124;DHT22;48506;48.202;16.274;2023-07-08T05:37:21;19.90;92.20
49124;DHT22;48506;48.202;16.274;2023-07-08T05:39:53;20.10;92.10
49124;DHT22;48506;48.202;16.274;2023-07-08T05:42:20;20.30;91.90
49124;DHT22;48506;48.202;16.274;2023-07-08T05:44:47;20.50;91.90
49124;DHT22;48506;48.202;16.274;2023-07-08T05:47:14;20.70;91.60
49124;DHT22;48506;48.202;16.274;2023-07-08T05:49:41;20.90;91.40
49124;DHT22;48506;48.202;16.274;2023-07-08T05:52:07;21.10;90.80
49124;DHT22;48506;48.202;16.274;2023-07-08T05:54:40;21.20;90.90
49124;DHT22;48506;48.202;16.274;2023-07-08T05:57:09;21.50;90.60
49124;DHT22;48506;48.202;16.274;2023-07-08T05:59:36;21.70;90.30
49124;DHT22;48506;48.202;16.274;2023-07-08T06:02:03;21.90;90.30
49124;DHT22;48506;48.202;16.274;2023-07-08T06:04:29;22.10;89.90
49124;DHT22;48506;48.202;16.274;2023-07-08T06:06:56;22.40;90.00
49124;DHT22;48506;48.202;16.274;2023-07-08T06:09:23;22.60;88.60
49124;DHT22;48506;48.202;16.274;2023-07-08T06:11:49;22.70;86.50
49124;DHT22;48506;48.202;16.274;2023-07-08T06:14:14;22.90;85.60
49124;DHT22;48506;48.202;16.274;2023-07-08T06:16:40;23.00;82.70
49124;DHT22;48506;48.202;16.274;2023-07-08T06:19:06;23.10;83.90
49124;DHT22;48506;48.202;16.274;2023-07-08T06:21:33;23.20;82.00
49124;DHT22;48506;48.202;16.274;2023-07-08T06:23:58;23.30;81.30
49124;DHT22;48506;48.202;16.274;2023-07-08T06:26:24;23.40;80.60
49124;DHT22;48506;48.202;16.274;2023-07-08T06:28:51;23.40;80.00
49124;DHT22;48506;48.202;16.274;2023-07-08T06:31:16;23.50;80.00
49124;DHT22;48506;48.202;16.274;2023-07-08T06:33:43;23.60;80.50
49124;DHT22;48506;48.202;16.274;2023-07-08T06:36:08;23.70;80.70
49124;DHT22;48506;48.202;16.274;2023-07-08T06:38:34;23.90;79.60
49124;DHT22;48506;48.202;16.274;2023-07-08T06:41:00;24.00;80.10
49124;DHT22;48506;48.202;16.274;2023-07-08T06:43:26;24.20;79.70
49124;DHT22;48506;48.202;16.274;2023-07-08T06:45:52;24.30;79.30
49124;DHT22;48506;48.202;16.274;2023-07-08T06:48:18;24.50;80.30
49124;DHT22;48506;48.202;16.274;2023-07-08T06:50:48;24.60;79.50
49124;DHT22;48506;48.202;16.274;2023-07-08T06:53:14;24.80;78.20
49124;DHT22;48506;48.202;16.274;2023-07-08T06:55:40;24.90;77.90
49124;DHT22;48506;48.202;16.274;2023-07-08T06:58:06;25.00;77.10
49124;DHT22;48506;48.202;16.274;2023-07-08T07:00:33;25.00;76.70
49124;DHT22;48506;48.202;16.274;2023-07-08T07:02:59;25.10;76.80
49124;DHT22;48506;48.202;16.274;2023-07-08T07:05:26;25.20;75.70
49124;DHT22;48506;48.202;16.274;2023-07-08T07:07:52;25.20;72.30
49124;DHT22;48506;48.202;16.274;2023-07-08T07:10:19;25.20;74.90
49124;DHT22;48506;48.202;16.274;2023-07-08T07:12:45;25.20;75.00
49124;DHT22;48506;48.202;16.274;2023-07-08T07:15:11;25.30;74.40
49124;DHT22;48506;48.202;16.274;2023-07-08T07:17:37;25.50;74.70
49124;DHT22;48506;48.202;16.274;2023-07-08T07:20:03;25.70;74.60
49124;DHT22;48506;48.202;16.274;2023-07-08T07:22:31;25.90;74.00
49124;DHT22;48506;48.202;16.274;2023-07-08T07:24:57;26.00;74.60
49124;DHT22;48506;48.202;16.274;2023-07-08T07:27:24;26.20;74.20
49124;DHT22;48506;48.202;16.274;2023-07-08T07:29:51;26.20;73.60
49124;DHT22;48506;48.202;16.274;2023-07-08T07:32:18;26.20;73.30
49124;DHT22;48506;48.202;16.274;2023-07-08T07:34:48;26.40;72.50
49124;DHT22;48506;48.202;16.274;2023-07-08T07:37:16;26.40;72.70
49124;DHT22;48506;48.202;16.274;2023-07-08T07:39:44;26.50;72.60
49124;DHT22;48506;48.202;16.274;2023-07-08T07:42:11;26.40;72.50
49124;DHT22;48506;48.202;16.274;2023-07-08T07:44:37;26.50;71.00
49124;DHT22;48506;48.202;16.274;2023-07-08T07:47:06;26.60;71.10
49124;DHT22;48506;48.202;16.274;2023-07-08T07:49:32;26.70;72.20
49124;DHT22;48506;48.202;16.274;2023-07-08T07:51:58;26.80;70.20
49124;DHT22;48506;48.202;16.274;2023-07-08T07:54:25;26.90;72.30
49124;DHT22;48506;48.202;16.274;2023-07-08T07:56:51;27.10;71.70
49124;DHT22;48506;48.202;16.274;2023-07-08T07:59:17;27.20;71.90
49124;DHT22;48506;48.202;16.274;2023-07-08T08:01:43;27.30;71.00
49124;DHT22;48506;48.202;16.274;2023-07-08T08:04:10;27.30;72.00
49124;DHT22;48506;48.202;16.274;2023-07-08T08:06:37;27.50;71.70
49124;DHT22;48506;48.202;16.274;2023-07-08T08:09:05;27.50;70.90
49124;DHT22;48506;48.202;16.274;2023-07-08T08:11:31;27.60;68.40
49124;DHT22;48506;48.202;16.274;2023-07-08T08:13:57;27.60;70.30
49124;DHT22;48506;48.202;16.274;2023-07-08T08:16:23;27.70;69.80
49124;DHT22;48506;48.202;16.274;2023-07-08T08:18:49;27.90;70.90
49124;DHT22;48506;48.202;16.274;2023-07-08T08:21:16;28.00;69.80
49124;DHT22;48506;48.202;16.274;2023-07-08T08:23:42;28.10;68.20
49124;DHT22;48506;48.202;16.274;2023-07-08T08:26:09;28.20;69.70
49124;DHT22;48506;48.202;16.274;2023-07-08T08:28:35;28.30;69.90
49124;DHT22;48506;48.202;16.274;2023-07-08T08:31:01;28.40;69.60
49124;DHT22;48506;48.202;16.274;2023-07-08T08:33:26;28.60;69.70
49124;DHT22;48506;48.202;16.274;2023-07-08T08:35:53;28.60;68.40
49124;DHT22;48506;48.202;16.274;2023-07-08T08:38:18;28.70;68.30
49124;DHT22;48506;48.202;16.274;2023-07-08T08:40:45;28.80;67.30
49124;DHT22;48506;48.202;16.274;2023-07-08T08:43:29;28.90;68.30
49124;DHT22;48506;48.202;16.274;2023-07-08T08:46:29;29.10;67.80
49124;DHT22;48506;48.202;16.274;2023-07-08T08:49:20;29.20;68.20
49124;DHT22;48506;48.202;16.274;2023-07-08T08:51:49;29.30;67.20
49124;DHT22;48506;48.202;16.274;2023-07-08T08:54:16;29.40;67.60
49124;DHT22;48506;48.202;16.274;2023-07-08T08:59:58;29.60;66.60
49124;DHT22;48506;48.202;16.274;2023-07-08T09:05:16;29.80;66.00
49124;DHT22;48506;48.202;16.274;2023-07-08T09:08:05;29.90;66.40
49124;DHT22;48506;48.202;16.274;2023-07-08T09:10:44;29.90;64.50
49124;DHT22;48506;48.202;16.274;2023-07-08T09:13:25;29.90;64.30
49124;DHT22;48506;48.202;16.274;2023-07-08T09:16:02;30.00;64.60
49124;DHT22;48506;48.202;16.274;2023-07-08T09:18:57;30.10;65.00
49124;DHT22;48506;48.202;16.274;2023-07-08T09:21:41;30.30;66.00
49124;DHT22;48506;48.202;16.274;2023-07-08T09:24:15;30.50;64.10
49124;DHT22;48506;48.202;16.274;2023-07-08T09:26:43;30.60;64.40
49124;DHT22;48506;48.202;16.274;2023-07-08T09:29:11;30.50;62.20
49124;DHT22;48506;48.202;16.274;2023-07-08T09:31:39;30.60;61.50
49124;DHT22;48506;48.202;16.274;2023-07-08T09:34:13;30.60;62.90
49124;DHT22;48506;48.202;16.274;2023-07-08T09:36:42;30.70;61.60
49124;DHT22;48506;48.202;16.274;2023-07-08T09:39:14;30.80;63.40
49124;DHT22;48506;48.202;16.274;2023-07-08T09:41:43;30.80;63.00
49124;DHT22;48506;48.202;16.274;2023-07-08T09:44:23;30.90;61.70
49124;DHT22;48506;48.202;16.274;2023-07-08T09:46:56;31.20;63.40
49124;DHT22;48506;48.202;16.274;2023-07-08T09:49:28;31.30;62.20
49124;DHT22;48506;48.202;16.274;2023-07-08T09:51:54;31.40;62.20
49124;DHT22;48506;48.202;16.274;2023-07-08T09:54:22;31.50;62.10
49124;DHT22;48506;48.202;16.274;2023-07-08T09:56:59;31.60;62.40
49124;DHT22;48506;48.202;16.274;2023-07-08T09:59:31;31.70;61.90
49124;DHT22;48506;48.202;16.274;2023-07-08T10:02:03;31.90;62.10
49124;DHT22;48506;48.202;16.274;2023-07-08T10:04:37;32.00;60.20
49124;DHT22;48506;48.202;16.274;2023-07-08T10:07:05;32.10;59.60
49124;DHT22;48506;48.202;16.274;2023-07-08T10:09:37;32.10;60.00
49124;DHT22;48506;48.202;16.274;2023-07-08T10:12:04;32.00;61.00
49124;DHT22;48506;48.202;16.274;2023-07-08T10:14:41;32.10;61.20
49124;DHT22;48506;48.202;16.274;2023-07-08T10:17:15;32.20;60.20
49124;DHT22;48506;48.202;16.274;2023-07-08T10:19:42;32.20;61.60
49124;DHT22;48506;48.202;16.274;2023-07-08T10:24:51;32.40;58.90
49124;DHT22;48506;48.202;16.274;2023-07-08T10:28:02;32.50;60.30
49124;DHT22;48506;48.202;16.274;2023-07-08T10:30:49;32.60;59.10
49124;DHT22;48506;48.202;16.274;2023-07-08T10:34:23;32.60;59.00
49124;DHT22;48506;48.202;16.274;2023-07-08T10:44:35;33.00;58.60
49124;DHT22;48506;48.202;16.274;2023-07-08T10:58:02;32.80;55.50
49124;DHT22;48506;48.202;16.274;2023-07-08T11:00:47;32.90;55.10
49124;DHT22;48506;48.202;16.274;2023-07-08T11:06:29;32.80;54.50
49124;DHT22;48506;48.202;16.274;2023-07-08T11:09:02;32.80;54.70
49124;DHT22;48506;48.202;16.274;2023-07-08T11:11:45;33.00;53.70
49124;DHT22;48506;48.202;16.274;2023-07-08T11:14:26;33.20;53.30
49124;DHT22;48506;48.202;16.274;2023-07-08T11:17:15;33.00;52.50
49124;DHT22;48506;48.202;16.274;2023-07-08T11:19:53;32.90;54.00
49124;DHT22;48506;48.202;16.274;2023-07-08T11:22:22;33.10;53.60
49124;DHT22;48506;48.202;16.274;2023-07-08T11:24:50;33.40;54.40
49124;DHT22;48506;48.202;16.274;2023-07-08T11:27:35;33.50;51.80
49124;DHT22;48506;48.202;16.274;2023-07-08T11:30:13;33.50;53.20
49124;DHT22;48506;48.202;16.274;2023-07-08T11:32:44;33.50;52.00
49124;DHT22;48506;48.202;16.274;2023-07-08T11:35:41;33.50;54.20
49124;DHT22;48506;48.202;16.274;2023-07-08T11:38:14;33.70;51.80
49124;DHT22;48506;48.202;16.274;2023-07-08T11:41:14;33.80;52.60
49124;DHT22;48506;48.202;16.274;2023-07-08T11:44:03;33.80;52.00
49124;DHT22;48506;48.202;16.274;2023-07-08T11:46:32;33.70;51.60
49124;DHT22;48506;48.202;16.274;2023-07-08T11:49:09;33.70;50.50
49124;DHT22;48506;48.202;16.274;2023-07-08T11:51:39;33.60;53.70
49124;DHT22;48506;48.202;16.274;2023-07-08T11:54:20;33.80;52.00
49124;DHT22;48506;48.202;16.274;2023-07-08T11:56:59;33.70;50.80
49124;DHT22;48506;48.202;16.274;2023-07-08T11:59:30;33.60;51.90
49124;DHT22;48506;48.202;16.274;2023-07-08T12:02:17;33.70;52.70
49124;DHT22;48506;48.202;16.274;2023-07-08T12:05:12;33.60;50.00
49124;DHT22;48506;48.202;16.274;2023-07-08T12:07:44;33.20;49.40
49124;DHT22;48506;48.202;16.274;2023-07-08T12:10:39;33.20;50.60
49124;DHT22;48506;48.202;16.274;2023-07-08T12:13:15;33.20;48.60
49124;DHT22;48506;48.202;16.274;2023-07-08T12:15:42;33.00;50.70
49124;DHT22;48506;48.202;16.274;2023-07-08T12:18:13;32.90;50.90
49124;DHT22;48506;48.202;16.274;2023-07-08T12:20:42;33.10;50.40
49124;DHT22;48506;48.202;16.274;2023-07-08T12:23:18;33.10;49.40
49124;DHT22;48506;48.202;16.274;2023-07-08T12:25:45;33.00;48.80
49124;DHT22;48506;48.202;16.274;2023-07-08T12:28:11;32.90;49.10
49124;DHT22;48506;48.202;16.274;2023-07-08T12:30:38;32.90;50.50
49124;DHT22;48506;48.202;16.274;2023-07-08T12:33:13;32.80;50.30
49124;DHT22;48506;48.202;16.274;2023-07-08T12:35:41;32.60;49.60
49124;DHT22;48506;48.202;16.274;2023-07-08T12:38:42;32.60;50.30
49124;DHT22;48506;48.202;16.274;2023-07-08T12:41:14;32.60;50.60
49124;DHT22;48506;48.202;16.274;2023-07-08T12:43:41;32.60;50.70
49124;DHT22;48506;48.202;16.274;2023-07-08T12:46:10;32.80;48.80
49124;DHT22;48506;48.202;16.274;2023-07-08T12:48:38;32.80;50.50
49124;DHT22;48506;48.202;16.274;2023-07-08T12:51:09;33.10;50.30
49124;DHT22;48506;48.202;16.274;2023-07-08T12:53:36;33.10;50.40
49124;DHT22;48506;48.202;16.274;2023-07-08T12:56:03;33.10;48.50
49124;DHT22;48506;48.202;16.274;2023-07-08T12:58:39;33.20;49.40
49124;DHT22;48506;48.202;16.274;2023-07-08T13:01:08;33.10;49.10
49124;DHT22;48506;48.202;16.274;2023-07-08T13:03:43;33.00;49.00
49124;DHT22;48506;48.202;16.274;2023-07-08T13:06:12;33.00;50.00
49124;DHT22;48506;48.202;16.274;2023-07-08T13:08:42;32.90;49.30
49124;DHT22;48506;48.202;16.274;2023-07-08T13:11:11;32.80;49.80
49124;DHT22;48506;48.202;16.274;2023-07-08T13:13:48;32.60;50.50
49124;DHT22;48506;48.202;16.274;2023-07-08T13:16:16;32.70;49.80
49124;DHT22;48506;48.202;16.274;2023-07-08T13:18:42;32.80;50.10
49124;DHT22;48506;48.202;16.274;2023-07-08T13:21:18;32.90;51.10
49124;DHT22;48506;48.202;16.274;2023-07-08T13:23:44;32.90;50.10
49124;DHT22;48506;48.202;16.274;2023-07-08T13:26:14;32.70;50.40
49124;DHT22;48506;48.202;16.274;2023-07-08T13:28:42;32.40;49.70
49124;DHT22;48506;48.202;16.274;2023-07-08T13:31:17;32.30;52.10
49124;DHT22;48506;48.202;16.274;2023-07-08T13:33:52;32.20;50.30
49124;DHT22;48506;48.202;16.274;2023-07-08T13:36:38;32.20;53.00
49124;DHT22;48506;48.202;16.274;2023-07-08T13:39:08;32.20;50.60
49124;DHT22;48506;48.202;16.274;2023-07-08T13:41:35;32.20;52.00
49124;DHT22;48506;48.202;16.274;2023-07-08T13:44:08;32.20;52.60
49124;DHT22;48506;48.202;16.274;2023-07-08T13:46:38;32.20;51.70
49124;DHT22;48506;48.202;16.274;2023-07-08T13:50:07;32.30;52.90
49124;DHT22;48506;48.202;16.274;2023-07-08T13:52:29;32.30;52.80
49124;DHT22;48506;48.202;16.274;2023-07-08T13:55:00;32.40;54.90
49124;DHT22;48506;48.202;16.274;2023-07-08T13:57:33;32.30;51.80
49124;DHT22;48506;48.202;16.274;2023-07-08T13:59:59;32.30;52.00
49124;DHT22;48506;48.202;16.274;2023-07-08T14:02:30;32.30;51.30
49124;DHT22;48506;48.202;16.274;2023-07-08T14:04:58;32.20;51.50
49124;DHT22;48506;48.202;16.274;2023-07-08T14:07:28;32.20;52.00
49124;DHT22;48506;48.202;16.274;2023-07-08T14:09:54;32.20;53.50
49124;DHT22;48506;48.202;16.274;2023-07-08T14:12:23;32.10;52.10
49124;DHT22;48506;48.202;16.274;2023-07-08T14:14:50;32.00;51.20
49124;DHT22;48506;48.202;16.274;2023-07-08T14:17:23;32.00;52.30
49124;DHT22;48506;48.202;16.274;2023-07-08T14:19:50;32.00;53.30
49124;DHT22;48506;48.202;16.274;2023-07-08T14:24:44;32.10;52.80
49124;DHT22;48506;48.202;16.274;2023-07-08T14:27:11;32.20;52.90
49124;DHT22;48506;48.202;16.274;2023-07-08T14:29:40;32.10;51.80
49124;DHT22;48506;48.202;16.274;2023-07-08T14:32:14;32.00;51.80
49124;DHT22;48506;48.202;16.274;2023-07-08T14:34:41;31.90;53.00
49124;DHT22;48506;48.202;16.274;2023-07-08T14:37:14;31.80;52.60
49124;DHT22;48506;48.202;16.274;2023-07-08T14:39:40;31.80;52.90
49124;DHT22;48506;48.202;16.274;2023-07-08T14:42:18;31.70;52.70
49124;DHT22;48506;48.202;16.274;2023-07-08T14:44:49;31.60;52.90
49124;DHT22;48506;48.202;16.274;2023-07-08T14:47:18;31.70;53.20
49124;DHT22;48506;48.202;16.274;2023-07-08T14:49:44;31.80;52.60
49124;DHT22;48506;48.202;16.274;2023-07-08T14:52:11;31.80;52.20
49124;DHT22;48506;48.202;16.274;2023-07-08T14:54:37;31.70;53.40
49124;DHT22;48506;48.202;16.274;2023-07-08T14:57:04;31.70;52.30
49124;DHT22;48506;48.202;16.274;2023-07-08T14:59:32;31.60;53.30
49124;DHT22;48506;48.202;16.274;2023-07-08T15:02:01;31.60;53.00
49124;DHT22;48506;48.202;16.274;2023-07-08T15:04:27;31.60;53.80
49124;DHT22;48506;48.202;16.274;2023-07-08T15:06:56;31.60;51.90
49124;DHT22;48506;48.202;16.274;2023-07-08T15:09:23;31.60;52.80
49124;DHT22;48506;48.202;16.274;2023-07-08T15:11:49;31.60;52.70
49124;DHT22;48506;48.202;16.274;2023-07-08T15:16:42;31.50;52.40
49124;DHT22;48506;48.202;16.274;2023-07-08T15:19:09;31.40;52.50
49124;DHT22;48506;48.202;16.274;2023-07-08T15:21:37;31.40;56.00
49124;DHT22;48506;48.202;16.274;2023-07-08T15:24:06;31.40;53.30
49124;DHT22;48506;48.202;16.274;2023-07-08T15:26:33;31.40;53.40
49124;DHT22;48506;48.202;16.274;2023-07-08T15:28:59;31.30;54.60
49124;DHT22;48506;48.202;16.274;2023-07-08T15:31:28;31.20;53.00
49124;DHT22;48506;48.202;16.274;2023-07-08T15:33:57;31.20;52.90
49124;DHT22;48506;48.202;16.274;2023-07-08T15:36:22;31.10;54.70
49124;DHT22;48506;48.202;16.274;2023-07-08T15:38:49;31.10;53.50
49124;DHT22;48506;48.202;16.274;2023-07-08T15:41:22;31.00;53.70
49124;DHT22;48506;48.202;16.274;2023-07-08T15:43:53;31.10;53.00
49124;DHT22;48506;48.202;16.274;2023-07-08T15:46:19;31.10;53.10
49124;DHT22;48506;48.202;16.274;2023-07-08T15:48:45;31.10;53.20
49124;DHT22;48506;48.202;16.274;2023-07-08T15:51:15;31.10;53.50
49124;DHT22;48506;48.202;16.274;2023-07-08T15:53:41;31.20;52.90
49124;DHT22;48506;48.202;16.274;2023-07-08T15:56:15;31.20;53.50
49124;DHT22;48506;48.202;16.274;2023-07-08T15:58:43;31.30;52.40
49124;DHT22;48506;48.202;16.274;2023-07-08T16:01:18;31.30;53.50
49124;DHT22;48506;48.202;16.274;2023-07-08T16:03:46;31.20;52.80
49124;DHT22;48506;48.202;16.274;2023-07-08T16:06:12;31.10;53.00
49124;DHT22;48506;48.202;16.274;2023-07-08T16:08:38;31.00;51.90
49124;DHT22;48506;48.202;16.274;2023-07-08T16:11:09;30.90;52.40
49124;DHT22;48506;48.202;16.274;2023-07-08T16:13:37;30.80;53.20
49124;DHT22;48506;48.202;16.274;2023-07-08T16:16:05;30.80;53.40
49124;DHT22;48506;48.202;16.274;2023-07-08T16:18:32;30.70;53.10
49124;DHT22;48506;48.202;16.274;2023-07-08T16:20:58;30.50;52.70